sensor_id;sensor_type;location;lat;lon;timestamp;temperature;humidity
13052;DHT22;6592;47.484;9.726;2024-03-08T00:00:15;4.20;99.90
13052;DHT22;6592;47.484;9.726;2024-03-08T00:02:47;4.20;99.90
13052;DHT22;6592;47.484;9.726;2024-03-08T00:05:18;4.10;99.90
13052;DHT22;6592;47.484;9.726;2024-03-08T00:07:47;4.00;99.90
13052;DHT22;6592;47.484;9.726;2024-03-08T00:10:16;4.00;99.90
13052;DHT22;6592;47.484;9.726;2024-03-08T00:12:45;3.90;99.90
13052;DHT22;6592;47.484;9.726;2024-03-08T00:15:15;3.90;99.90
13052;DHT22;6592;47.484;9.726;2024-03-08T00:17:46;3.80;99.90
13052;DHT22;6592;47.484;9.726;2024-03-08T00:20:15;3.80;99.90
13052;DHT22;6592;47.484;9.726;2024-03-08T00:22:47;3.70;99.90
13052;DHT22;6592;47.484;9.726;2024-03-08T00:25:15;3.70;99.90
13052;DHT22;6592;47.484;9.726;2024-03-08T00:27:43;3.70;99.90
13052;DHT22;6592;47.484;9.726;2024-03-08T00:30:12;3.60;99.90
13052;DHT22;6592;47.484;9.726;2024-03-08T00:32:41;3.60;99.90
13052;DHT22;6592;47.484;9.726;2024-03-08T00:35:10;3.50;99.90
13052;DHT22;6592;47.484;9.726;2024-03-08T00:37:39;3.50;99.90
13052;DHT22;6592;47.484;9.726;2024-03-08T00:40:11;3.50;99.90
13052;DHT22;6592;47.484;9.726;2024-03-08T00:42:39;3.40;99.90
13052;DHT22;6592;47.484;9.726;2024-03-08T00:45:09;3.40;99.90
13052;DHT22;6592;47.484;9.726;2024-03-08T00:47:38;3.30;99.90
13052;DHT22;6592;47.484;9.726;2024-03-08T00:50:07;3.30;99.90
13052;DHT22;6592;47.484;9.726;2024-03-08T00:52:36;3.20;99.90
13052;DHT22;6592;47.484;9.726;2024-03-08T00:55:05;3.20;99.90
13052;DHT22;6592;47.484;9.726;2024-03-08T00:57:36;3.20;99.90
13052;DHT22;6592;47.484;9.726;2024-03-08T01:00:06;3.10;99.90
13052;DHT22;6592;47.484;9.726;2024-03-08T01:02:39;3.00;99.90
13052;DHT22;6592;47.484;9.726;2024-03-08T01:05:08;2.90;99.90
13052;DHT22;6592;47.484;9.726;2024-03-08T01:07:36;2.90;99.90
13052;DHT22;6592;47.484;9.726;2024-03-08T01:10:05;2.90;99.90
13052;DHT22;6592;47.484;9.726;2024-03-08T01:12:37;2.90;99.90
13052;DHT22;6592;47.484;9.726;2024-03-08T01:15:06;2.90;99.90
13052;DHT22;6592;47.484;9.726;2024-03-08T01:17:35;2.90;99.90
13052;DHT22;6592;47.484;9.726;2024-03-08T01:20:05;2.80;99.90
13052;DHT22;6592;47.484;9.726;2024-03-08T01:22:33;2.80;99.90
13052;DHT22;6592;47.484;9.726;2024-03-08T01:25:01;2.80;99.90
13052;DHT22;6592;47.484;9.726;2024-03-08T01:27:31;2.70;99.90
13052;DHT22;6592;47.484;9.726;2024-03-08T01:30:03;2.70;99.90
13052;DHT22;6592;47.484;9.726;2024-03-08T01:32:32;2.60;99.90
13052;DHT22;6592;47.484;9.726;2024-03-08T01:35:00;2.60;99.90
13052;DHT22;6592;47.484;9.726;2024-03-08T01:37:29;2.50;99.90
13052;DHT22;6592;47.484;9.726;2024-03-08T01:39:58;2.50;99.90
13052;DHT22;6592;47.484;9.726;2024-03-08T01:42:26;2.50;99.90
13052;DHT22;6592;47.484;9.726;2024-03-08T01:44:55;2.50;99.90
13052;DHT22;6592;47.484;9.726;2024-03-08T01:47:25;2.50;99.90
13052;DHT22;6592;47.484;9.726;2024-03-08T01:49:53;2.50;99.90
13052;DHT22;6592;47.484;9.726;2024-03-08T01:52:22;2.40;99.90
13052;DHT22;6592;47.484;9.726;2024-03-08T01:54:52;2.40;99.90
13052;DHT22;6592;47.484;9.726;2024-03-08T01:57:20;2.40;99.90
13052;DHT22;6592;47.484;9.726;2024-03-08T01:59:49;2.40;99.90
13052;DHT22;6592;47.484;9.726;2024-03-08T02:02:18;2.30;99.90
13052;DHT22;6592;47.484;9.726;2024-03-08T02:04:48;2.30;99.90
13052;DHT22;6592;47.484;9.726;2024-03-08T02:07:20;2.20;99.90
13052;DHT22;6592;47.484;9.726;2024-03-08T02:09:49;2.20;99.90
13052;DHT22;6592;47.484;9.726;2024-03-08T02:12:18;2.20;99.90
13052;DHT22;6592;47.484;9.726;2024-03-08T02:14:48;2.20;99.90
13052;DHT22;6592;47.484;9.726;2024-03-08T02:17:16;2.10;99.90
13052;DHT22;6592;47.484;9.726;2024-03-08T02:19:44;2.10;99.90
13052;DHT22;6592;47.484;9.726;2024-03-08T02:22:15;2.10;99.90
13052;DHT22;6592;47.484;9.726;2024-03-08T02:24:44;2.00;99.90
13052;DHT22;6592;47.484;9.726;2024-03-08T02:27:13;2.00;99.90
13052;DHT22;6592;47.484;9.726;2024-03-08T02:29:42;2.00;99.90
13052;DHT22;6592;47.484;9.726;2024-03-08T02:32:12;2.00;99.90
13052;DHT22;6592;47.484;9.726;2024-03-08T02:34:40;1.90;99.90
13052;DHT22;6592;47.484;9.726;2024-03-08T02:37:08;1.90;99.90
13052;DHT22;6592;47.484;9.726;2024-03-08T02:39:38;1.90;99.90
13052;DHT22;6592;47.484;9.726;2024-03-08T02:42:07;1.90;99.90
13052;DHT22;6592;47.484;9.726;2024-03-08T02:44:35;1.90;99.90
13052;DHT22;6592;47.484;9.726;2024-03-08T02:47:04;1.80;99.90
13052;DHT22;6592;47.484;9.726;2024-03-08T02:49:33;1.80;99.90
13052;DHT22;6592;47.484;9.726;2024-03-08T02:52:01;1.70;99.90
13052;DHT22;6592;47.484;9.726;2024-03-08T02:54:29;1.70;99.90
13052;DHT22;6592;47.484;9.726;2024-03-08T02:56:59;1.60;99.90
13052;DHT22;6592;47.484;9.726;2024-03-08T02:59:28;1.60;99.90
13052;DHT22;6592;47.484;9.726;2024-03-08T03:01:56;1.60;99.90
13052;DHT22;6592;47.484;9.726;2024-03-08T03:04:24;1.60;99.90
13052;DHT22;6592;47.484;9.726;2024-03-08T03:06:53;1.60;99.90
13052;DHT22;6592;47.484;9.726;2024-03-08T03:09:21;1.60;99.90
13052;DHT22;6592;47.484;9.726;2024-03-08T03:11:54;1.60;99.90
13052;DHT22;6592;47.484;9.726;2024-03-08T03:14:24;1.60;99.90
13052;DHT22;6592;47.484;9.726;2024-03-08T03:16:54;1.50;99.90
13052;DHT22;6592;47.484;9.726;2024-03-08T03:19:22;1.50;99.90
13052;DHT22;6592;47.484;9.726;2024-03-08T03:21:50;1.50;99.90
13052;DHT22;6592;47.484;9.726;2024-03-08T03:24:19;1.50;99.90
13052;DHT22;6592;47.484;9.726;2024-03-08T03:26:48;1.40;99.90
13052;DHT22;6592;47.484;9.726;2024-03-08T03:29:16;1.50;99.90
13052;DHT22;6592;47.484;9.726;2024-03-08T03:31:46;1.40;99.90
13052;DHT22;6592;47.484;9.726;2024-03-08T03:34:14;1.30;99.90
13052;DHT22;6592;47.484;9.726;2024-03-08T03:36:44;1.30;99.90
13052;DHT22;6592;47.484;9.726;2024-03-08T03:39:14;1.30;99.90
13052;DHT22;6592;47.484;9.726;2024-03-08T03:41:43;1.20;99.90
13052;DHT22;6592;47.484;9.726;2024-03-08T03:44:13;1.20;99.90
13052;DHT22;6592;47.484;9.726;2024-03-08T03:46:42;1.20;99.90
13052;DHT22;6592;47.484;9.726;2024-03-08T03:49:13;1.20;99.90
13052;DHT22;6592;47.484;9.726;2024-03-08T03:51:41;1.20;99.90
13052;DHT22;6592;47.484;9.726;2024-03-08T03:54:11;1.20;99.90
13052;DHT22;6592;47.484;9.726;2024-03-08T03:56:40;1.20;99.90
13052;DHT22;6592;47.484;9.726;2024-03-08T03:59:08;1.20;99.90
13052;DHT22;6592;47.484;9.726;2024-03-08T04:01:36;1.20;99.90
13052;DHT22;6592;47.484;9.726;2024-03-08T04:04:09;1.20;99.90
13052;DHT22;6592;47.484;9.726;2024-03-08T04:06:40;1.20;99.90
13052;DHT22;6592;47.484;9.726;2024-03-08T04:09:09;1.20;99.90
13052;DHT22;6592;47.484;9.726;2024-03-08T04:11:38;1.30;99.90
13052;DHT22;6592;47.484;9.726;2024-03-08T04:14:06;1.20;99.90
13052;DHT22;6592;47.484;9.726;2024-03-08T04:16:34;1.30;99.90
13052;DHT22;6592;47.484;9.726;2024-03-08T04:19:03;1.30;99.90
13052;DHT22;6592;47.484;9.726;2024-03-08T04:21:31;1.40;99.90
13052;DHT22;6592;47.484;9.726;2024-03-08T04:24:01;1.50;99.90
13052;DHT22;6592;47.484;9.726;2024-03-08T04:26:29;1.50;99.90
13052;DHT22;6592;47.484;9.726;2024-03-08T04:28:58;1.60;99.90
13052;DHT22;6592;47.484;9.726;2024-03-08T04:31:26;1.70;99.90
13052;DHT22;6592;47.484;9.726;2024-03-08T04:33:54;1.90;99.90
13052;DHT22;6592;47.484;9.726;2024-03-08T04:36:22;1.80;99.90
13052;DHT22;6592;47.484;9.726;2024-03-08T04:38:51;2.10;99.90
13052;DHT22;6592;47.484;9.726;2024-03-08T04:41:21;2.10;99.90
13052;DHT22;6592;47.484;9.726;2024-03-08T04:43:50;2.10;99.90
13052;DHT22;6592;47.484;9.726;2024-03-08T04:46:18;2.20;99.90
13052;DHT22;6592;47.484;9.726;2024-03-08T04:48:47;2.30;99.90
13052;DHT22;6592;47.484;9.726;2024-03-08T04:51:15;2.30;99.90
13052;DHT22;6592;47.484;9.726;2024-03-08T04:53:44;2.40;99.90
13052;DHT22;6592;47.484;9.726;2024-03-08T04:56:12;2.40;99.90
13052;DHT22;6592;47.484;9.726;2024-03-08T04:58:42;2.40;99.90
13052;DHT22;6592;47.484;9.726;2024-03-08T05:01:10;2.70;99.90
13052;DHT22;6592;47.484;9.726;2024-03-08T05:03:38;2.50;99.90
13052;DHT22;6592;47.484;9.726;2024-03-08T05:06:07;2.50;99.90
13052;DHT22;6592;47.484;9.726;2024-03-08T05:08:35;2.50;99.90
13052;DHT22;6592;47.484;9.726;2024-03-08T05:11:04;2.50;99.90
13052;DHT22;6592;47.484;9.726;2024-03-08T05:13:34;2.60;99.90
13052;DHT22;6592;47.484;9.726;2024-03-08T05:16:04;2.50;99.90
13052;DHT22;6592;47.484;9.726;2024-03-08T05:18:34;2.60;99.90
13052;DHT22;6592;47.484;9.726;2024-03-08T05:21:03;2.60;99.90
13052;DHT22;6592;47.484;9.726;2024-03-08T05:23:31;2.60;99.90
13052;DHT22;6592;47.484;9.726;2024-03-08T05:26:01;2.60;99.90
13052;DHT22;6592;47.484;9.726;2024-03-08T05:28:30;2.70;99.90
13052;DHT22;6592;47.484;9.726;2024-03-08T05:30:58;2.70;99.90
13052;DHT22;6592;47.484;9.726;2024-03-08T05:33:28;2.70;99.90
13052;DHT22;6592;47.484;9.726;2024-03-08T05:35:56;2.80;99.90
13052;DHT22;6592;47.484;9.726;2024-03-08T05:38:26;2.80;99.90
13052;DHT22;6592;47.484;9.726;2024-03-08T05:40:55;2.80;99.90
13052;DHT22;6592;47.484;9.726;2024-03-08T05:43:23;2.90;99.90
13052;DHT22;6592;47.484;9.726;2024-03-08T05:45:51;2.90;99.90
13052;DHT22;6592;47.484;9.726;2024-03-08T05:48:19;3.00;99.90
13052;DHT22;6592;47.484;9.726;2024-03-08T05:50:51;3.00;99.90
13052;DHT22;6592;47.484;9.726;2024-03-08T05:53:19;3.10;99.90
13052;DHT22;6592;47.484;9.726;2024-03-08T05:55:47;3.10;99.90
13052;DHT22;6592;47.484;9.726;2024-03-08T05:58:16;3.20;99.90
13052;DHT22;6592;47.484;9.726;2024-03-08T06:00:44;3.30;99.90
13052;DHT22;6592;47.484;9.726;2024-03-08T06:03:15;3.20;99.90
13052;DHT22;6592;47.484;9.726;2024-03-08T06:05:47;3.20;99.90
13052;DHT22;6592;47.484;9.726;2024-03-08T06:08:17;3.30;99.90
13052;DHT22;6592;47.484;9.726;2024-03-08T06:10:46;3.40;99.90
13052;DHT22;6592;47.484;9.726;2024-03-08T06:13:17;3.40;99.90
13052;DHT22;6592;47.484;9.726;2024-03-08T06:15:46;3.50;99.90
13052;DHT22;6592;47.484;9.726;2024-03-08T06:18:14;3.50;99.90
13052;DHT22;6592;47.484;9.726;2024-03-08T06:20:42;3.60;99.90
13052;DHT22;6592;47.484;9.726;2024-03-08T06:23:13;3.60;99.90
13052;DHT22;6592;47.484;9.726;2024-03-08T06:25:46;3.60;99.90
13052;DHT22;6592;47.484;9.726;2024-03-08T06:28:14;3.70;99.90
13052;DHT22;6592;47.484;9.726;2024-03-08T06:30:43;3.70;99.90
13052;DHT22;6592;47.484;9.726;2024-03-08T06:33:12;3.80;99.90
13052;DHT22;6592;47.484;9.726;2024-03-08T06:35:40;3.80;99.90
13052;DHT22;6592;47.484;9.726;2024-03-08T06:38:08;3.90;99.90
13052;DHT22;6592;47.484;9.726;2024-03-08T06:40:38;3.90;99.90
13052;DHT22;6592;47.484;9.726;2024-03-08T06:43:08;4.00;99.90
13052;DHT22;6592;47.484;9.726;2024-03-08T06:45:41;4.00;99.90
13052;DHT22;6592;47.484;9.726;2024-03-08T06:48:15;4.00;99.90
13052;DHT22;6592;47.484;9.726;2024-03-08T06:50:44;4.10;99.90
13052;DHT22;6592;47.484;9.726;2024-03-08T06:53:13;4.10;99.90
13052;DHT22;6592;47.484;9.726;2024-03-08T06:55:44;4.20;99.90
13052;DHT22;6592;47.484;9.726;2024-03-08T06:58:14;4.40;99.90
13052;DHT22;6592;47.484;9.726;2024-03-08T07:00:43;4.40;99.90
13052;DHT22;6592;47.484;9.726;2024-03-08T07:03:11;4.40;99.90
13052;DHT22;6592;47.484;9.726;2024-03-08T07:05:44;4.40;99.90
13052;DHT22;6592;47.484;9.726;2024-03-08T07:08:13;4.30;99.90
13052;DHT22;6592;47.484;9.726;2024-03-08T07:10:43;4.50;99.90
13052;DHT22;6592;47.484;9.726;2024-03-08T07:13:13;4.50;99.90
13052;DHT22;6592;47.484;9.726;2024-03-08T07:15:41;4.50;99.90
13052;DHT22;6592;47.484;9.726;2024-03-08T07:18:10;4.50;99.90
13052;DHT22;6592;47.484;9.726;2024-03-08T07:20:41;4.60;99.90
13052;DHT22;6592;47.484;9.726;2024-03-08T07:23:10;4.70;99.90
13052;DHT22;6592;47.484;9.726;2024-03-08T07:25:59;4.90;99.90
13052;DHT22;6592;47.484;9.726;2024-03-08T07:28:29;4.90;99.90
13052;DHT22;6592;47.484;9.726;2024-03-08T07:30:58;4.90;99.90
13052;DHT22;6592;47.484;9.726;2024-03-08T07:33:39;5.00;99.90
13052;DHT22;6592;47.484;9.726;2024-03-08T07:36:08;5.20;99.90
13052;DHT22;6592;47.484;9.726;2024-03-08T07:38:36;5.30;99.90
13052;DHT22;6592;47.484;9.726;2024-03-08T07:41:04;5.50;99.90
13052;DHT22;6592;47.484;9.726;2024-03-08T07:43:34;5.60;99.90
13052;DHT22;6592;47.484;9.726;2024-03-08T07:46:02;5.90;99.90
13052;DHT22;6592;47.484;9.726;2024-03-08T07:48:31;6.20;99.90
13052;DHT22;6592;47.484;9.726;2024-03-08T07:50:59;6.40;99.90
13052;DHT22;6592;47.484;9.726;2024-03-08T07:53:27;6.50;99.90
13052;DHT22;6592;47.484;9.726;2024-03-08T07:55:56;6.60;99.90
13052;DHT22;6592;47.484;9.726;2024-03-08T07:58:24;6.70;99.90
13052;DHT22;6592;47.484;9.726;2024-03-08T08:00:53;6.70;99.90
13052;DHT22;6592;47.484;9.726;2024-03-08T08:03:22;6.90;99.90
13052;DHT22;6592;47.484;9.726;2024-03-08T08:05:50;6.90;99.90
13052;DHT22;6592;47.484;9.726;2024-03-08T08:08:18;6.80;99.90
13052;DHT22;6592;47.484;9.726;2024-03-08T08:10:47;6.70;99.90
13052;DHT22;6592;47.484;9.726;2024-03-08T08:13:16;6.80;99.90
13052;DHT22;6592;47.484;9.726;2024-03-08T08:15:45;6.70;99.90
13052;DHT22;6592;47.484;9.726;2024-03-08T08:18:15;6.60;99.90
13052;DHT22;6592;47.484;9.726;2024-03-08T08:20:44;6.60;99.90
13052;DHT22;6592;47.484;9.726;2024-03-08T08:23:12;6.50;99.90
13052;DHT22;6592;47.484;9.726;2024-03-08T08:25:40;6.50;99.90
13052;DHT22;6592;47.484;9.726;2024-03-08T08:28:09;6.40;99.90
13052;DHT22;6592;47.484;9.726;2024-03-08T08:30:39;6.40;99.90
13052;DHT22;6592;47.484;9.726;2024-03-08T08:33:07;6.40;99.90
13052;DHT22;6592;47.484;9.726;2024-03-08T08:35:37;6.40;99.90
13052;DHT22;6592;47.484;9.726;2024-03-08T08:38:06;6.30;99.90
13052;DHT22;6592;47.484;9.726;2024-03-08T08:40:35;6.30;99.90
13052;DHT22;6592;47.484;9.726;2024-03-08T08:43:04;6.40;99.90
13052;DHT22;6592;47.484;9.726;2024-03-08T08:45:32;6.50;99.90
13052;DHT22;6592;47.484;9.726;2024-03-08T08:48:01;6.40;99.90
13052;DHT22;6592;47.484;9.726;2024-03-08T08:50:29;6.40;99.90
13052;DHT22;6592;47.484;9.726;2024-03-08T08:52:59;6.50;99.90
13052;DHT22;6592;47.484;9.726;2024-03-08T08:55:27;6.50;99.90
13052;DHT22;6592;47.484;9.726;2024-03-08T08:57:56;6.50;99.90
13052;DHT22;6592;47.484;9.726;2024-03-08T09:00:24;6.50;99.90
13052;DHT22;6592;47.484;9.726;2024-03-08T09:02:55;6.60;99.90
13052;DHT22;6592;47.484;9.726;2024-03-08T09:05:25;6.60;99.90
13052;DHT22;6592;47.484;9.726;2024-03-08T09:07:54;6.70;99.90
13052;DHT22;6592;47.484;9.726;2024-03-08T09:10:24;6.60;99.90
13052;DHT22;6592;47.484;9.726;2024-03-08T09:12:55;6.50;99.90
13052;DHT22;6592;47.484;9.726;2024-03-08T09:15:23;6.50;99.90
13052;DHT22;6592;47.484;9.726;2024-03-08T09:17:54;6.50;99.90
13052;DHT22;6592;47.484;9.726;2024-03-08T09:20:22;6.50;99.90
13052;DHT22;6592;47.484;9.726;2024-03-08T09:22:52;6.60;99.90
13052;DHT22;6592;47.484;9.726;2024-03-08T09:25:20;6.60;99.90
13052;DHT22;6592;47.484;9.726;2024-03-08T09:27:50;6.60;99.90
13052;DHT22;6592;47.484;9.726;2024-03-08T09:30:18;6.80;99.90
13052;DHT22;6592;47.484;9.726;2024-03-08T09:32:48;6.90;99.90
13052;DHT22;6592;47.484;9.726;2024-03-08T09:35:18;7.10;99.90
13052;DHT22;6592;47.484;9.726;2024-03-08T09:37:47;7.30;99.90
13052;DHT22;6592;47.484;9.726;2024-03-08T09:40:18;7.50;99.90
13052;DHT22;6592;47.484;9.726;2024-03-08T09:42:49;7.60;99.90
13052;DHT22;6592;47.484;9.726;2024-03-08T09:45:20;7.70;99.90
13052;DHT22;6592;47.484;9.726;2024-03-08T09:47:49;7.80;99.90
13052;DHT22;6592;47.484;9.726;2024-03-08T09:50:17;7.90;99.90
13052;DHT22;6592;47.484;9.726;2024-03-08T09:52:47;8.10;99.90
13052;DHT22;6592;47.484;9.726;2024-03-08T09:55:16;8.20;99.90
13052;DHT22;6592;47.484;9.726;2024-03-08T09:57:51;8.20;99.90
13052;DHT22;6592;47.484;9.726;2024-03-08T10:00:38;8.30;99.90
13052;DHT22;6592;47.484;9.726;2024-03-08T10:03:07;8.50;99.90
13052;DHT22;6592;47.484;9.726;2024-03-08T10:05:39;8.70;99.90
13052;DHT22;6592;47.484;9.726;2024-03-08T10:08:07;9.10;99.90
13052;DHT22;6592;47.484;9.726;2024-03-08T10:10:36;9.70;99.90
13052;DHT22;6592;47.484;9.726;2024-03-08T10:13:07;10.80;99.90
13052;DHT22;6592;47.484;9.726;2024-03-08T10:15:35;13.10;99.90
13052;DHT22;6592;47.484;9.726;2024-03-08T10:18:05;15.30;99.90
13052;DHT22;6592;47.484;9.726;2024-03-08T10:20:34;17.10;99.90
13052;DHT22;6592;47.484;9.726;2024-03-08T10:23:03;18.20;99.90
13052;DHT22;6592;47.484;9.726;2024-03-08T10:25:37;19.80;99.90
13052;DHT22;6592;47.484;9.726;2024-03-08T10:28:07;21.40;99.90
13052;DHT22;6592;47.484;9.726;2024-03-08T10:30:36;21.90;99.90
13052;DHT22;6592;47.484;9.726;2024-03-08T10:33:05;22.80;99.80
13052;DHT22;6592;47.484;9.726;2024-03-08T10:35:34;23.40;96.30
13052;DHT22;6592;47.484;9.726;2024-03-08T10:38:05;23.70;94.20
13052;DHT22;6592;47.484;9.726;2024-03-08T10:40:35;23.90;90.60
13052;DHT22;6592;47.484;9.726;2024-03-08T10:43:14;24.70;88.40
13052;DHT22;6592;47.484;9.726;2024-03-08T10:45:47;25.20;82.80
13052;DHT22;6592;47.484;9.726;2024-03-08T10:48:26;25.80;80.80
13052;DHT22;6592;47.484;9.726;2024-03-08T10:51:04;26.60;75.60
13052;DHT22;6592;47.484;9.726;2024-03-08T10:53:34;26.90;74.00
13052;DHT22;6592;47.484;9.726;2024-03-08T10:56:08;26.60;70.80
13052;DHT22;6592;47.484;9.726;2024-03-08T10:58:39;26.10;73.70
13052;DHT22;6592;47.484;9.726;2024-03-08T11:01:08;26.70;72.00
13052;DHT22;6592;47.484;9.726;2024-03-08T11:03:44;26.40;66.60
13052;DHT22;6592;47.484;9.726;2024-03-08T11:06:18;26.90;66.50
13052;DHT22;6592;47.484;9.726;2024-03-08T11:08:50;27.20;67.20
13052;DHT22;6592;47.484;9.726;2024-03-08T11:11:25;27.70;67.10
13052;DHT22;6592;47.484;9.726;2024-03-08T11:14:02;27.50;62.60
13052;DHT22;6592;47.484;9.726;2024-03-08T11:16:38;27.70;64.80
13052;DHT22;6592;47.484;9.726;2024-03-08T11:19:24;27.80;59.90
13052;DHT22;6592;47.484;9.726;2024-03-08T11:22:04;27.60;61.40
13052;DHT22;6592;47.484;9.726;2024-03-08T11:24:38;27.10;61.50
13052;DHT22;6592;47.484;9.726;2024-03-08T11:27:09;26.60;61.00
13052;DHT22;6592;47.484;9.726;2024-03-08T11:29:40;26.50;61.30
13052;DHT22;6592;47.484;9.726;2024-03-08T11:32:10;26.00;61.60
13052;DHT22;6592;47.484;9.726;2024-03-08T11:34:40;25.80;64.20
13052;DHT22;6592;47.484;9.726;2024-03-08T11:37:13;25.60;64.40
13052;DHT22;6592;47.484;9.726;2024-03-08T11:39:46;26.00;61.90
13052;DHT22;6592;47.484;9.726;2024-03-08T11:42:16;26.20;64.30
13052;DHT22;6592;47.484;9.726;2024-03-08T11:44:46;26.60;63.00
13052;DHT22;6592;47.484;9.726;2024-03-08T11:47:15;26.70;60.60
13052;DHT22;6592;47.484;9.726;2024-03-08T11:49:44;26.50;61.80
13052;DHT22;6592;47.484;9.726;2024-03-08T11:52:16;26.60;61.70
13052;DHT22;6592;47.484;9.726;2024-03-08T11:54:51;26.20;61.80
13052;DHT22;6592;47.484;9.726;2024-03-08T11:57:21;25.70;60.60
13052;DHT22;6592;47.484;9.726;2024-03-08T11:59:52;25.50;63.30
13052;DHT22;6592;47.484;9.726;2024-03-08T12:02:23;25.70;62.50
13052;DHT22;6592;47.484;9.726;2024-03-08T12:04:56;26.00;61.30
13052;DHT22;6592;47.484;9.726;2024-03-08T12:07:27;25.70;63.70
13052;DHT22;6592;47.484;9.726;2024-03-08T12:10:15;25.20;62.90
13052;DHT22;6592;47.484;9.726;2024-03-08T12:12:45;24.90;62.50
13052;DHT22;6592;47.484;9.726;2024-03-08T12:15:17;25.20;63.50
13052;DHT22;6592;47.484;9.726;2024-03-08T12:17:48;24.60;63.40
13052;DHT22;6592;47.484;9.726;2024-03-08T12:20:19;24.60;63.10
13052;DHT22;6592;47.484;9.726;2024-03-08T12:22:49;24.20;64.40
13052;DHT22;6592;47.484;9.726;2024-03-08T12:25:19;23.50;66.40
13052;DHT22;6592;47.484;9.726;2024-03-08T12:27:48;23.80;65.90
13052;DHT22;6592;47.484;9.726;2024-03-08T12:30:23;23.90;64.40
13052;DHT22;6592;47.484;9.726;2024-03-08T12:32:55;23.70;65.80
13052;DHT22;6592;47.484;9.726;2024-03-08T12:35:26;23.50;65.70
13052;DHT22;6592;47.484;9.726;2024-03-08T12:37:56;23.60;66.20
13052;DHT22;6592;47.484;9.726;2024-03-08T12:40:29;23.80;65.70
13052;DHT22;6592;47.484;9.726;2024-03-08T12:42:59;24.10;65.00
13052;DHT22;6592;47.484;9.726;2024-03-08T12:45:28;23.80;65.50
13052;DHT22;6592;47.484;9.726;2024-03-08T12:47:57;23.40;66.50
13052;DHT22;6592;47.484;9.726;2024-03-08T12:50:26;23.30;67.70
13052;DHT22;6592;47.484;9.726;2024-03-08T12:52:54;23.50;65.80
13052;DHT22;6592;47.484;9.726;2024-03-08T12:55:24;23.60;64.60
13052;DHT22;6592;47.484;9.726;2024-03-08T12:57:51;23.30;65.70
13052;DHT22;6592;47.484;9.726;2024-03-08T13:00:20;23.30;68.20
13052;DHT22;6592;47.484;9.726;2024-03-08T13:02:52;23.30;67.10
13052;DHT22;6592;47.484;9.726;2024-03-08T13:05:20;23.70;65.60
13052;DHT22;6592;47.484;9.726;2024-03-08T13:07:48;23.30;65.20
13052;DHT22;6592;47.484;9.726;2024-03-08T13:10:17;23.50;65.90
13052;DHT22;6592;47.484;9.726;2024-03-08T13:12:47;23.20;66.10
13052;DHT22;6592;47.484;9.726;2024-03-08T13:15:19;23.20;66.10
13052;DHT22;6592;47.484;9.726;2024-03-08T13:17:48;23.20;67.40
13052;DHT22;6592;47.484;9.726;2024-03-08T13:20:18;23.10;67.20
13052;DHT22;6592;47.484;9.726;2024-03-08T13:22:57;23.60;67.40
13052;DHT22;6592;47.484;9.726;2024-03-08T13:25:28;23.80;65.50
13052;DHT22;6592;47.484;9.726;2024-03-08T13:27:57;23.80;65.50
13052;DHT22;6592;47.484;9.726;2024-03-08T13:30:27;23.70;64.70
13052;DHT22;6592;47.484;9.726;2024-03-08T13:32:57;23.80;66.50
13052;DHT22;6592;47.484;9.726;2024-03-08T13:35:27;24.00;64.30
13052;DHT22;6592;47.484;9.726;2024-03-08T13:37:57;23.60;65.50
13052;DHT22;6592;47.484;9.726;2024-03-08T13:40:26;23.80;65.30
13052;DHT22;6592;47.484;9.726;2024-03-08T13:42:54;23.90;64.70
13052;DHT22;6592;47.484;9.726;2024-03-08T13:45:22;23.90;65.00
13052;DHT22;6592;47.484;9.726;2024-03-08T13:47:52;24.20;65.50
13052;DHT22;6592;47.484;9.726;2024-03-08T13:50:21;24.20;65.30
13052;DHT22;6592;47.484;9.726;2024-03-08T13:52:52;23.80;66.00
13052;DHT22;6592;47.484;9.726;2024-03-08T13:55:23;24.00;65.20
13052;DHT22;6592;47.484;9.726;2024-03-08T13:57:53;24.40;65.10
13052;DHT22;6592;47.484;9.726;2024-03-08T14:00:21;24.70;63.40
13052;DHT22;6592;47.484;9.726;2024-03-08T14:02:52;24.90;63.30
13052;DHT22;6592;47.484;9.726;2024-03-08T14:05:21;25.00;62.20
13052;DHT22;6592;47.484;9.726;2024-03-08T14:07:49;25.00;62.20
13052;DHT22;6592;47.484;9.726;2024-03-08T14:10:19;25.00;62.30
13052;DHT22;6592;47.484;9.726;2024-03-08T14:12:50;25.10;61.50
13052;DHT22;6592;47.484;9.726;2024-03-08T14:15:18;24.90;62.20
13052;DHT22;6592;47.484;9.726;2024-03-08T14:17:52;24.70;62.20
13052;DHT22;6592;47.484;9.726;2024-03-08T14:20:21;24.40;62.80
13052;DHT22;6592;47.484;9.726;2024-03-08T14:22:52;24.30;62.60
13052;DHT22;6592;47.484;9.726;2024-03-08T14:25:24;24.30;62.70
13052;DHT22;6592;47.484;9.726;2024-03-08T14:27:53;24.20;63.00
13052;DHT22;6592;47.484;9.726;2024-03-08T14:30:25;24.00;63.30
13052;DHT22;6592;47.484;9.726;2024-03-08T14:33:05;23.90;63.40
13052;DHT22;6592;47.484;9.726;2024-03-08T14:35:36;23.80;63.80
13052;DHT22;6592;47.484;9.726;2024-03-08T14:38:05;23.70;62.60
13052;DHT22;6592;47.484;9.726;2024-03-08T14:40:37;23.60;63.70
13052;DHT22;6592;47.484;9.726;2024-03-08T14:43:05;23.40;65.10
13052;DHT22;6592;47.484;9.726;2024-03-08T14:45:33;23.40;64.20
13052;DHT22;6592;47.484;9.726;2024-03-08T14:48:04;23.30;64.30
13052;DHT22;6592;47.484;9.726;2024-03-08T14:50:33;23.40;63.80
13052;DHT22;6592;47.484;9.726;2024-03-08T14:53:04;23.60;64.60
13052;DHT22;6592;47.484;9.726;2024-03-08T14:55:34;23.70;63.70
13052;DHT22;6592;47.484;9.726;2024-03-08T14:58:04;23.40;63.90
13052;DHT22;6592;47.484;9.726;2024-03-08T15:00:32;23.30;64.40
13052;DHT22;6592;47.484;9.726;2024-03-08T15:03:02;23.10;64.50
13052;DHT22;6592;47.484;9.726;2024-03-08T15:05:33;23.10;65.00
13052;DHT22;6592;47.484;9.726;2024-03-08T15:08:06;22.90;64.60
13052;DHT22;6592;47.484;9.726;2024-03-08T15:10:39;22.70;65.70
13052;DHT22;6592;47.484;9.726;2024-03-08T15:13:10;22.50;65.70
13052;DHT22;6592;47.484;9.726;2024-03-08T15:15:49;22.60;65.60
13052;DHT22;6592;47.484;9.726;2024-03-08T15:18:23;22.60;65.40
13052;DHT22;6592;47.484;9.726;2024-03-08T15:20:58;22.50;65.50
13052;DHT22;6592;47.484;9.726;2024-03-08T15:23:27;22.40;65.50
13052;DHT22;6592;47.484;9.726;2024-03-08T15:25:55;22.30;66.50
13052;DHT22;6592;47.484;9.726;2024-03-08T15:28:25;22.20;66.40
13052;DHT22;6592;47.484;9.726;2024-03-08T15:31:03;21.90;67.50
13052;DHT22;6592;47.484;9.726;2024-03-08T15:33:37;22.00;66.90
13052;DHT22;6592;47.484;9.726;2024-03-08T15:36:10;21.90;67.20
13052;DHT22;6592;47.484;9.726;2024-03-08T15:38:41;21.80;67.90
13052;DHT22;6592;47.484;9.726;2024-03-08T15:41:10;21.70;68.10
13052;DHT22;6592;47.484;9.726;2024-03-08T15:43:41;21.70;68.20
13052;DHT22;6592;47.484;9.726;2024-03-08T15:46:10;21.60;67.80
13052;DHT22;6592;47.484;9.726;2024-03-08T15:48:38;21.10;68.80
13052;DHT22;6592;47.484;9.726;2024-03-08T15:51:09;20.70;69.50
13052;DHT22;6592;47.484;9.726;2024-03-08T15:53:38;20.50;70.50
13052;DHT22;6592;47.484;9.726;2024-03-08T15:56:06;20.30;71.00
13052;DHT22;6592;47.484;9.726;2024-03-08T15:58:36;20.10;71.10
13052;DHT22;6592;47.484;9.726;2024-03-08T16:01:06;19.70;71.40
13052;DHT22;6592;47.484;9.726;2024-03-08T16:03:35;19.50;72.70
13052;DHT22;6592;47.484;9.726;2024-03-08T16:06:03;19.30;73.10
13052;DHT22;6592;47.484;9.726;2024-03-08T16:08:33;18.80;73.60
13052;DHT22;6592;47.484;9.726;2024-03-08T16:11:05;18.60;74.40